createdAt,value
2023-03-11T00:01:21.676Z,4.00
2023-03-11T00:03:50.642Z,3.90
2023-03-11T00:06:18.513Z,3.90
2023-03-11T00:08:46.354Z,3.90
2023-03-11T00:11:14.206Z,3.80
2023-03-11T00:13:42.061Z,3.80
2023-03-11T00:16:11.611Z,3.80
2023-03-11T00:18:39.518Z,3.80
2023-03-11T00:21:07.335Z,3.80
2023-03-11T00:23:35.619Z,3.70
2023-03-11T00:26:03.901Z,3.70
2023-03-11T00:28:34.254Z,3.70
2023-03-11T00:31:03.408Z,3.70
2023-03-11T00:33:32.699Z,3.60
2023-03-11T00:36:00.559Z,3.70
2023-03-11T00:38:28.459Z,3.70
2023-03-11T00:40:56.372Z,3.70
2023-03-11T00:43:24.270Z,3.60
2023-03-11T00:45:52.155Z,3.50
2023-03-11T00:48:20.005Z,3.50
2023-03-11T00:50:49.229Z,3.50
2023-03-11T00:53:17.128Z,3.40
2023-03-11T00:55:45.026Z,3.30
2023-03-11T00:58:13.132Z,3.30
2023-03-11T01:00:41.144Z,3.40
2023-03-11T01:03:09.319Z,3.30
2023-03-11T01:05:37.780Z,3.30
2023-03-11T01:08:07.406Z,3.30
2023-03-11T01:10:35.792Z,3.30
2023-03-11T01:13:04.189Z,3.30
2023-03-11T01:15:32.981Z,3.20
2023-03-11T01:18:01.136Z,3.20
2023-03-11T01:20:29.306Z,3.20
2023-03-11T01:22:57.200Z,3.20
2023-03-11T01:25:26.777Z,3.20
2023-03-11T01:27:54.642Z,3.10
2023-03-11T01:30:23.458Z,3.10
2023-03-11T01:32:51.369Z,3.00
2023-03-11T01:35:19.950Z,3.00
2023-03-11T01:37:47.808Z,3.10
2023-03-11T01:40:18.070Z,3.10
2023-03-11T01:42:47.274Z,3.10
2023-03-11T01:45:27.745Z,3.10
2023-03-11T01:47:55.932Z,3.00
2023-03-11T01:50:23.936Z,2.90
2023-03-11T01:52:51.790Z,2.90
2023-03-11T01:55:19.878Z,2.90
2023-03-11T01:57:49.870Z,2.80
2023-03-11T02:00:17.875Z,2.80
2023-03-11T02:02:49.244Z,2.80
2023-03-11T02:05:17.875Z,2.70
2023-03-11T02:07:46.315Z,2.60
2023-03-11T02:10:14.594Z,2.50
2023-03-11T02:12:43.572Z,2.60
2023-03-11T02:15:13.836Z,2.60
2023-03-11T02:17:42.348Z,2.50
2023-03-11T02:20:15.948Z,2.50
2023-03-11T02:22:44.849Z,2.50
2023-03-11T02:25:16.793Z,2.50
2023-03-11T02:27:47.548Z,2.40
2023-03-11T02:30:16.546Z,2.40
2023-03-11T02:32:47.173Z,2.40
2023-03-11T02:35:15.494Z,2.40
2023-03-11T02:37:47.446Z,2.30
2023-03-11T02:40:32.537Z,2.30
2023-03-11T02:43:03.496Z,2.30
2023-03-11T02:45:31.661Z,2.30
2023-03-11T02:48:00.504Z,2.30
2023-03-11T02:50:29.465Z,2.20
2023-03-11T02:52:57.428Z,2.10
2023-03-11T02:55:25.412Z,2.10
2023-03-11T02:57:53.321Z,2.10
2023-03-11T03:00:22.794Z,2.10
2023-03-11T03:02:52.136Z,2.10
2023-03-11T03:05:21.215Z,2.10
2023-03-11T03:07:49.147Z,2.10
2023-03-11T03:10:17.178Z,2.00
2023-03-11T03:12:45.216Z,2.00
2023-03-11T03:15:13.267Z,2.00
2023-03-11T03:17:42.583Z,2.00
2023-03-11T03:20:13.118Z,2.00
2023-03-11T03:22:41.293Z,2.00
2023-03-11T03:25:09.702Z,1.90
2023-03-11T03:27:37.716Z,1.90
2023-03-11T03:30:06.164Z,1.90
2023-03-11T03:32:34.143Z,1.90
2023-03-11T03:35:03.490Z,1.80
2023-03-11T03:37:33.923Z,1.80
2023-03-11T03:40:01.837Z,1.80
2023-03-11T03:42:29.658Z,1.80
2023-03-11T03:44:57.521Z,1.80
2023-03-11T03:47:25.373Z,1.80
2023-03-11T03:49:53.266Z,1.90
2023-03-11T03:52:22.440Z,1.90
2023-03-11T03:54:50.276Z,1.90
2023-03-11T03:57:18.675Z,1.90
2023-03-11T03:59:46.516Z,1.90
2023-03-11T04:02:14.599Z,1.90
2023-03-11T04:04:42.449Z,1.80
2023-03-11T04:07:10.295Z,1.80
2023-03-11T04:09:41.451Z,1.80
2023-03-11T04:12:09.832Z,1.80
2023-03-11T04:14:37.978Z,1.80
2023-03-11T04:17:05.930Z,1.80
2023-03-11T04:19:33.846Z,1.80
2023-03-11T04:22:01.679Z,1.80
2023-03-11T04:24:29.488Z,1.70
2023-03-11T04:26:58.699Z,1.70
2023-03-11T04:29:26.528Z,1.70
2023-03-11T04:31:54.426Z,1.70
2023-03-11T04:34:22.265Z,1.70
2023-03-11T04:36:52.441Z,1.70
2023-03-11T04:39:20.298Z,1.60
2023-03-11T04:41:48.197Z,1.70
2023-03-11T04:44:17.473Z,1.70
2023-03-11T04:46:45.322Z,1.70
2023-03-11T04:49:13.145Z,1.80
2023-03-11T04:51:41.112Z,1.80
2023-03-11T04:54:09.086Z,1.70
2023-03-11T04:56:37.019Z,1.70
2023-03-11T04:59:04.915Z,1.70
2023-03-11T05:01:34.128Z,1.70
2023-03-11T05:04:02.052Z,1.70
2023-03-11T05:06:30.004Z,1.70
2023-03-11T05:08:59.014Z,1.70
2023-03-11T05:11:26.879Z,1.80
2023-03-11T05:13:54.744Z,1.80
2023-03-11T05:16:22.735Z,1.80
2023-03-11T05:18:52.030Z,1.70
2023-03-11T05:21:19.888Z,1.70
2023-03-11T05:23:47.711Z,1.70
2023-03-11T05:26:15.568Z,1.70
2023-03-11T05:28:43.457Z,1.70
2023-03-11T05:31:11.856Z,1.70
2023-03-11T05:33:39.824Z,1.70
2023-03-11T05:36:10.665Z,1.70
2023-03-11T05:38:39.370Z,1.70
2023-03-11T05:41:07.432Z,1.70
2023-03-11T05:43:35.275Z,1.70
2023-03-11T05:46:03.116Z,1.70
2023-03-11T05:48:31.026Z,1.70
2023-03-11T05:50:59.416Z,1.70
2023-03-11T05:53:28.628Z,1.70
2023-03-11T05:55:57.026Z,1.70
2023-03-11T05:58:24.922Z,1.70
2023-03-11T06:00:52.794Z,1.80
2023-03-11T06:03:20.643Z,1.80
2023-03-11T06:05:48.836Z,1.70
2023-03-11T06:08:16.959Z,1.70
2023-03-11T06:10:48.845Z,1.70
2023-03-11T06:13:16.932Z,1.70
2023-03-11T06:15:44.946Z,1.70
2023-03-11T06:18:12.799Z,1.80
2023-03-11T06:20:40.653Z,1.80
2023-03-11T06:23:08.493Z,1.80
2023-03-11T06:25:36.383Z,1.80
2023-03-11T06:28:05.793Z,1.80
2023-03-11T06:30:33.674Z,1.80
2023-03-11T06:33:02.315Z,1.80
2023-03-11T06:35:30.196Z,1.80
2023-03-11T06:37:58.017Z,1.90
2023-03-11T06:40:25.874Z,1.90
2023-03-11T06:42:53.702Z,2.00
2023-03-11T06:45:22.926Z,2.00
2023-03-11T06:47:50.743Z,2.10
2023-03-11T06:50:18.829Z,2.20
2023-03-11T06:52:46.684Z,2.20
2023-03-11T06:55:14.536Z,2.30
2023-03-11T06:57:42.414Z,2.30
2023-03-11T07:00:12.202Z,2.40
2023-03-11T07:02:41.446Z,2.40
2023-03-11T07:05:09.696Z,2.50
2023-03-11T07:07:37.556Z,2.60
2023-03-11T07:10:05.852Z,2.60
2023-03-11T07:12:33.703Z,2.60
2023-03-11T07:15:02.045Z,2.70
2023-03-11T07:17:29.926Z,2.70
2023-03-11T07:19:59.154Z,2.80
2023-03-11T07:22:27.127Z,2.80
2023-03-11T07:24:55.022Z,2.90
2023-03-11T07:27:23.391Z,3.00
2023-03-11T07:29:51.256Z,2.90
2023-03-11T07:32:19.248Z,3.10
2023-03-11T07:34:47.156Z,3.10
2023-03-11T07:37:16.447Z,3.20
2023-03-11T07:39:44.304Z,3.20
2023-03-11T07:42:12.156Z,3.10
2023-03-11T07:44:40.092Z,3.10
2023-03-11T07:47:08.008Z,3.10
2023-03-11T07:49:35.843Z,3.10
2023-03-11T07:52:03.823Z,3.30
2023-03-11T07:54:33.046Z,3.30
2023-03-11T07:57:01.165Z,3.40
2023-03-11T07:59:29.173Z,3.40
2023-03-11T08:01:57.088Z,3.40
2023-03-11T08:04:24.942Z,3.40
2023-03-11T08:06:52.845Z,3.40
2023-03-11T08:09:20.673Z,3.40
2023-03-11T08:11:49.952Z,3.50
2023-03-11T08:14:18.218Z,3.40
2023-03-11T08:16:46.138Z,3.50
2023-03-11T08:19:14.414Z,3.40
2023-03-11T08:21:42.278Z,3.40
2023-03-11T08:24:11.666Z,3.40
2023-03-11T08:26:39.555Z,3.30
2023-03-11T08:29:08.777Z,3.20
2023-03-11T08:31:36.685Z,3.10
2023-03-11T08:34:05.986Z,3.00
2023-03-11T08:36:34.305Z,3.00
2023-03-11T08:39:02.234Z,3.00
2023-03-11T08:41:30.142Z,3.10
2023-03-11T08:43:58.010Z,3.10
2023-03-11T08:46:28.426Z,3.10
2023-03-11T08:48:58.080Z,3.00
2023-03-11T08:51:27.696Z,2.90
2023-03-11T08:53:55.683Z,2.90
2023-03-11T08:56:23.563Z,2.90
2023-03-11T08:58:51.747Z,2.90
2023-03-11T09:01:20.245Z,2.80
2023-03-11T09:03:49.545Z,2.80
2023-03-11T09:06:18.205Z,2.70
2023-03-11T09:08:46.596Z,2.80
2023-03-11T09:11:14.777Z,2.80
2023-03-11T09:13:42.764Z,2.90
2023-03-11T09:16:12.130Z,3.00
2023-03-11T09:18:40.065Z,3.20
2023-03-11T09:21:09.684Z,3.40
2023-03-11T09:23:37.592Z,3.40
2023-03-11T09:26:05.706Z,3.40
2023-03-11T09:28:33.888Z,3.30
2023-03-11T09:31:01.807Z,3.60
2023-03-11T09:33:30.103Z,4.10
2023-03-11T09:35:58.513Z,4.50
2023-03-11T09:38:27.773Z,4.80
2023-03-11T09:40:59.078Z,5.10
2023-03-11T09:43:36.440Z,5.10
2023-03-11T09:46:07.202Z,5.30
2023-03-11T09:48:38.516Z,5.30
2023-03-11T09:51:09.517Z,5.30
2023-03-11T09:53:41.517Z,5.50
2023-03-11T09:56:10.477Z,6.00
2023-03-11T09:58:39.712Z,6.00
2023-03-11T10:01:13.765Z,6.20
2023-03-11T10:03:41.855Z,5.90
2023-03-11T10:06:15.040Z,5.70
2023-03-11T10:08:46.747Z,5.60
2023-03-11T10:11:22.401Z,5.80
2023-03-11T10:13:57.155Z,5.80
2023-03-11T10:16:29.892Z,6.10
2023-03-11T10:19:02.187Z,6.10
2023-03-11T10:21:36.386Z,5.80
2023-03-11T10:24:14.747Z,5.60
2023-03-11T10:26:43.775Z,5.50
2023-03-11T10:29:16.290Z,5.30
2023-03-11T10:31:46.042Z,5.10
2023-03-11T10:34:16.556Z,5.10
2023-03-11T10:36:51.370Z,4.90
2023-03-11T10:39:20.599Z,4.80
2023-03-11T10:41:50.629Z,4.70
2023-03-11T10:44:20.419Z,4.70
2023-03-11T10:46:48.464Z,4.70
2023-03-11T10:49:17.053Z,4.50
2023-03-11T10:51:46.692Z,4.50
2023-03-11T10:54:22.975Z,4.50
2023-03-11T10:56:52.569Z,4.60
2023-03-11T10:59:24.106Z,4.50
2023-03-11T11:01:55.089Z,4.40
2023-03-11T11:04:35.715Z,4.30
2023-03-11T11:07:23.174Z,4.20
2023-03-11T11:10:10.876Z,4.20
2023-03-11T11:12:38.872Z,4.10
2023-03-11T11:15:07.320Z,4.10
2023-03-11T11:17:35.439Z,4.10
2023-03-11T11:20:13.031Z,4.10
2023-03-11T11:22:48.722Z,4.30
2023-03-11T11:25:27.339Z,4.40
2023-03-11T11:27:56.121Z,4.40
2023-03-11T11:30:24.519Z,4.30
2023-03-11T11:32:53.837Z,4.30
2023-03-11T11:35:22.535Z,4.30
2023-03-11T11:37:51.267Z,4.20
2023-03-11T11:40:24.414Z,4.10
2023-03-11T11:42:55.288Z,3.90
2023-03-11T11:45:28.521Z,3.90
2023-03-11T11:47:58.694Z,4.10
2023-03-11T11:50:30.048Z,4.80
2023-03-11T11:52:59.295Z,5.20
2023-03-11T11:55:28.112Z,5.60
2023-03-11T11:57:57.451Z,5.60
2023-03-11T12:00:30.925Z,5.40
2023-03-11T12:03:07.671Z,5.30
2023-03-11T12:05:39.432Z,5.10
2023-03-11T12:08:10.943Z,4.90
2023-03-11T12:10:42.421Z,4.80
2023-03-11T12:13:40.267Z,4.80
2023-03-11T12:16:14.122Z,4.90
2023-03-11T12:18:44.796Z,5.10
2023-03-11T12:21:16.455Z,5.20
2023-03-11T12:23:53.173Z,5.60
2023-03-11T12:26:23.144Z,5.40
2023-03-11T12:28:55.018Z,5.00
2023-03-11T12:31:25.494Z,4.80
2023-03-11T12:33:57.879Z,4.70
2023-03-11T12:36:26.791Z,4.60
2023-03-11T12:38:54.881Z,4.60
2023-03-11T12:41:30.862Z,4.40
2023-03-11T12:44:02.962Z,4.50
2023-03-11T12:46:49.497Z,4.50
2023-03-11T12:49:24.217Z,4.50
2023-03-11T12:52:02.088Z,4.50
2023-03-11T12:54:31.564Z,4.40
2023-03-11T12:57:01.242Z,4.40
2023-03-11T12:59:47.870Z,4.30
2023-03-11T13:02:24.861Z,4.20
2023-03-11T13:04:58.963Z,4.10
2023-03-11T13:07:43.341Z,4.00
2023-03-11T13:10:29.245Z,4.00
2023-03-11T13:12:57.544Z,3.90
2023-03-11T13:15:34.653Z,3.90
2023-03-11T13:18:05.185Z,3.90
2023-03-11T13:20:49.204Z,3.90
2023-03-11T13:23:27.749Z,4.10
2023-03-11T13:26:13.240Z,4.30
2023-03-11T13:28:51.815Z,4.70
2023-03-11T13:31:30.898Z,4.80
2023-03-11T13:34:02.248Z,4.90
2023-03-11T13:36:51.062Z,4.80
2023-03-11T13:39:27.448Z,6.30
2023-03-11T13:41:55.607Z,8.00
2023-03-11T13:44:27.028Z,7.80
2023-03-11T13:46:58.159Z,7.40
2023-03-11T13:49:29.729Z,6.50
2023-03-11T13:51:59.392Z,5.90
2023-03-11T13:54:32.518Z,5.60
2023-03-11T13:57:01.328Z,5.30
2023-03-11T13:59:31.024Z,5.00
2023-03-11T14:02:00.936Z,4.80
2023-03-11T14:04:29.982Z,4.60
2023-03-11T14:06:57.926Z,4.50
2023-03-11T14:09:27.008Z,4.40
2023-03-11T14:12:04.400Z,4.40
2023-03-11T14:14:36.011Z,4.40
2023-03-11T14:17:05.046Z,4.60
2023-03-11T14:19:32.944Z,4.60
2023-03-11T14:22:00.878Z,4.70
2023-03-11T14:24:30.298Z,4.70
2023-03-11T14:27:00.828Z,4.60
2023-03-11T14:29:31.958Z,4.50
2023-03-11T14:31:59.948Z,4.50
2023-03-11T14:34:28.873Z,4.50
2023-03-11T14:36:57.441Z,4.40
2023-03-11T14:39:29.640Z,4.40
2023-03-11T14:42:00.587Z,4.20
2023-03-11T14:44:29.483Z,4.10
2023-03-11T14:47:04.285Z,4.00
2023-03-11T14:49:32.380Z,3.90
2023-03-11T14:52:02.784Z,3.80
2023-03-11T14:54:32.413Z,3.70
2023-03-11T14:57:04.280Z,3.50
2023-03-11T14:59:33.295Z,3.50
2023-03-11T15:02:05.660Z,3.40
2023-03-11T15:04:34.828Z,3.30
2023-03-11T15:07:04.546Z,3.20
2023-03-11T15:09:32.773Z,3.10
2023-03-11T15:12:04.147Z,3.10
2023-03-11T15:14:33.413Z,3.10
2023-03-11T15:17:13.355Z,3.10
2023-03-11T15:19:45.345Z,3.00
2023-03-11T15:22:24.407Z,3.00
2023-03-11T15:24:53.658Z,3.00
2023-03-11T15:27:28.448Z,3.00
2023-03-11T15:29:56.302Z,3.00
2023-03-11T15:32:36.951Z,2.90
2023-03-11T15:35:14.178Z,3.00
2023-03-11T15:37:42.795Z,3.00
2023-03-11T15:40:20.209Z,3.00
2023-03-11T15:42:49.932Z,2.90
2023-03-11T15:45:18.721Z,2.90
2023-03-11T15:47:47.102Z,2.90
2023-03-11T15:50:27.317Z,2.90
2023-03-11T15:52:58.515Z,2.80
2023-03-11T15:55:27.525Z,2.70
2023-03-11T15:57:59.677Z,2.60
2023-03-11T16:00:27.522Z,2.60
2023-03-11T16:02:56.192Z,2.60
2023-03-11T16:05:24.895Z,2.60
2023-03-11T16:07:52.756Z,2.50
2023-03-11T16:10:24.076Z,2.50
2023-03-11T16:12:51.962Z,2.50
2023-03-11T16:15:24.767Z,2.40
2023-03-11T16:17:53.540Z,2.40
2023-03-11T16:20:22.127Z,2.40
2023-03-11T16:22:51.303Z,2.30
2023-03-11T16:25:21.578Z,2.30
2023-03-11T16:27:50.591Z,2.30
2023-03-11T16:30:18.859Z,2.20
2023-03-11T16:32:48.167Z,2.10
2023-03-11T16:35:16.076Z,2.10
2023-03-11T16:37:43.943Z,2.10
2023-03-11T16:40:13.830Z,2.00
2023-03-11T16:42:42.435Z,2.00
2023-03-11T16:45:10.590Z,1.90
2023-03-11T16:47:38.446Z,1.90
2023-03-11T16:50:08.754Z,1.90
2023-03-11T16:52:36.696Z,1.80
2023-03-11T16:55:04.967Z,1.80
2023-03-11T16:57:32.847Z,1.70
2023-03-11T17:00:00.788Z,1.70
2023-03-11T17:02:28.910Z,1.70
2023-03-11T17:04:57.015Z,1.60
2023-03-11T17:07:26.913Z,1.60
2023-03-11T17:09:54.760Z,1.50
2023-03-11T17:12:23.139Z,1.50
2023-03-11T17:14:50.995Z,1.50
2023-03-11T17:17:19.318Z,1.50
2023-03-11T17:19:47.283Z,1.40
2023-03-11T17:22:15.136Z,1.40
2023-03-11T17:24:44.342Z,1.40
2023-03-11T17:27:12.224Z,1.30
2023-03-11T17:29:40.078Z,1.40
2023-03-11T17:32:08.489Z,1.40
2023-03-11T17:34:36.325Z,1.30
2023-03-11T17:37:04.173Z,1.30
2023-03-11T17:39:31.987Z,1.30
2023-03-11T17:42:01.243Z,1.30
2023-03-11T17:44:37.900Z,1.30
2023-03-11T17:47:12.636Z,1.20
2023-03-11T17:49:40.481Z,1.20
2023-03-11T17:52:08.340Z,1.20
2023-03-11T17:54:36.264Z,1.10
2023-03-11T17:57:05.473Z,1.10
2023-03-11T17:59:33.319Z,1.10
2023-03-11T18:02:01.283Z,1.00
2023-03-11T18:04:29.458Z,1.10
2023-03-11T18:06:57.335Z,1.10
2023-03-11T18:09:25.480Z,1.00
2023-03-11T18:11:54.230Z,1.00
2023-03-11T18:14:23.443Z,1.00
2023-03-11T18:16:51.408Z,1.00
2023-03-11T18:19:19.324Z,1.00
2023-03-11T18:21:48.191Z,0.90
2023-03-11T18:24:16.101Z,0.90
2023-03-11T18:26:43.946Z,0.80
2023-03-11T18:29:11.935Z,0.80
2023-03-11T18:31:41.146Z,0.80
2023-03-11T18:34:13.417Z,0.80
2023-03-11T18:36:42.369Z,0.80
2023-03-11T18:39:12.555Z,0.80
2023-03-11T18:41:40.470Z,0.80
2023-03-11T18:44:08.368Z,0.80
2023-03-11T18:46:36.236Z,0.80
2023-03-11T18:49:05.569Z,0.70
2023-03-11T18:51:33.979Z,0.70
2023-03-11T18:54:02.081Z,0.80
2023-03-11T18:56:31.963Z,0.80
2023-03-11T18:58:59.953Z,0.70
2023-03-11T19:01:28.217Z,0.70
2023-03-11T19:03:56.864Z,0.70
2023-03-11T19:06:27.504Z,0.70
2023-03-11T19:08:55.376Z,0.60
2023-03-11T19:11:24.202Z,0.60
2023-03-11T19:13:52.114Z,0.60
2023-03-11T19:16:21.974Z,0.60
2023-03-11T19:18:50.169Z,0.60
2023-03-11T19:21:18.426Z,0.60
2023-03-11T19:23:49.168Z,0.60
2023-03-11T19:26:16.985Z,0.50
2023-03-11T19:28:44.856Z,0.50
2023-03-11T19:31:12.798Z,0.50
2023-03-11T19:33:40.737Z,0.40
2023-03-11T19:36:09.096Z,0.40
2023-03-11T19:38:37.050Z,0.30
2023-03-11T19:41:07.439Z,0.30
2023-03-11T19:43:36.244Z,0.30
2023-03-11T19:46:04.476Z,0.20
2023-03-11T19:48:32.473Z,0.20
2023-03-11T19:51:00.576Z,0.10
2023-03-11T19:53:28.574Z,0.10
2023-03-11T19:55:57.206Z,0.10
2023-03-11T19:58:30.220Z,0.00
2023-03-11T20:00:59.029Z,0.00
2023-03-11T20:03:27.278Z,-0.10
2023-03-11T20:05:56.692Z,-0.20
2023-03-11T20:08:25.494Z,-0.30
2023-03-11T20:10:54.057Z,-0.30
2023-03-11T20:13:22.441Z,-0.40
2023-03-11T20:15:51.736Z,-0.50
2023-03-11T20:18:19.679Z,-0.50
2023-03-11T20:20:47.639Z,-0.60
2023-03-11T20:23:15.616Z,-0.70
2023-03-11T20:25:43.604Z,-0.70
2023-03-11T20:28:11.568Z,-0.70
2023-03-11T20:30:40.017Z,-0.70
2023-03-11T20:33:09.380Z,-0.80
2023-03-11T20:35:37.530Z,-0.80
2023-03-11T20:38:05.435Z,-0.80
2023-03-11T20:40:33.744Z,-0.90
2023-03-11T20:43:01.856Z,-0.90
2023-03-11T20:45:29.760Z,-0.90
2023-03-11T20:47:57.678Z,-0.90
2023-03-11T20:50:26.918Z,-0.90
2023-03-11T20:52:54.855Z,-0.90
2023-03-11T20:55:22.969Z,-1.00
2023-03-11T20:57:51.265Z,-1.00
2023-03-11T21:00:20.464Z,-1.10
2023-03-11T21:02:48.501Z,-1.10
2023-03-11T21:05:16.559Z,-1.10
2023-03-11T21:07:45.784Z,-1.10
2023-03-11T21:10:13.840Z,-1.10
2023-03-11T21:12:41.726Z,-1.10
2023-03-11T21:15:10.459Z,-1.10
2023-03-11T21:17:38.632Z,-1.10
2023-03-11T21:20:07.216Z,-1.10
2023-03-11T21:22:35.218Z,-1.10
2023-03-11T21:25:07.155Z,-1.10
2023-03-11T21:27:36.414Z,-1.10
2023-03-11T21:30:04.855Z,-1.10
2023-03-11T21:32:33.190Z,-1.10
2023-03-11T21:35:01.840Z,-1.10
2023-03-11T21:37:30.082Z,-1.10
2023-03-11T21:39:58.147Z,-1.10
2023-03-11T21:42:29.342Z,-1.10
2023-03-11T21:44:57.431Z,-1.10
2023-03-11T21:47:25.347Z,-1.10
2023-03-11T21:49:53.299Z,-1.20
2023-03-11T21:52:21.200Z,-1.10
2023-03-11T21:54:49.099Z,-1.20
2023-03-11T21:57:17.015Z,-1.20
2023-03-11T21:59:46.262Z,-1.20
2023-03-11T22:02:14.945Z,-1.20
2023-03-11T22:04:42.958Z,-1.20
2023-03-11T22:07:11.004Z,-1.20
2023-03-11T22:09:38.907Z,-1.20
2023-03-11T22:12:07.373Z,-1.20
2023-03-11T22:14:35.418Z,-1.30
2023-03-11T22:17:04.725Z,-1.30
2023-03-11T22:19:32.605Z,-1.30
2023-03-11T22:22:00.645Z,-1.30
2023-03-11T22:24:28.571Z,-1.30
2023-03-11T22:26:56.423Z,-1.30
2023-03-11T22:29:24.274Z,-1.30
2023-03-11T22:31:52.159Z,-1.30
2023-03-11T22:34:21.419Z,-1.40
2023-03-11T22:36:49.261Z,-1.40
2023-03-11T22:39:17.076Z,-1.50
2023-03-11T22:41:44.984Z,-1.50
2023-03-11T22:44:12.872Z,-1.60
2023-03-11T22:46:40.760Z,-1.60
2023-03-11T22:49:08.705Z,-1.60
2023-03-11T22:51:37.937Z,-1.60
2023-03-11T22:54:05.812Z,-1.70
2023-03-11T22:56:33.712Z,-1.70
2023-03-11T22:59:01.573Z,-1.80
2023-03-11T23:01:29.468Z,-1.80
2023-03-11T23:03:57.356Z,-1.80
2023-03-11T23:06:25.219Z,-1.80
2023-03-11T23:08:54.434Z,-1.90
2023-03-11T23:11:23.327Z,-1.90
2023-03-11T23:13:51.689Z,-1.90
2023-03-11T23:16:20.946Z,-1.90
2023-03-11T23:18:50.984Z,-1.90
2023-03-11T23:21:20.153Z,-1.90
2023-03-11T23:23:48.337Z,-1.90
2023-03-11T23:26:17.883Z,-2.00
2023-03-11T23:28:46.159Z,-2.00
2023-03-11T23:31:15.025Z,-2.00
2023-03-11T23:33:42.913Z,-2.00
2023-03-11T23:36:12.953Z,-2.00
2023-03-11T23:38:40.968Z,-2.10
2023-03-11T23:41:09.247Z,-2.10
2023-03-11T23:43:38.537Z,-2.20
2023-03-11T23:46:06.593Z,-2.20
2023-03-11T23:48:34.578Z,-2.30
2023-03-11T23:51:02.448Z,-2.30
2023-03-11T23:53:30.300Z,-2.30
2023-03-11T23:55:58.211Z,-2.40
2023-03-11T23:58:26.070Z,-2.40
